sensor_id;sensor_type;location;lat;lon;timestamp;pressure;altitude;pressure_sealevel;temperature;humidity
49515;BME280;35415;47.870;16.058;2023-11-21T12:48:25;96792.78;;;8.58;97.51
49515;BME280;35415;47.870;16.058;2023-11-21T12:50:53;96831.94;;;8.90;96.02
49515;BME280;35415;47.870;16.058;2023-11-21T13:57:42;96816.34;;;8.56;95.67
49515;BME280;35415;47.870;16.058;2023-11-21T14:09:23;96827.34;;;8.55;95.89
49515;BME280;35415;47.870;16.058;2023-11-21T15:01:02;96848.00;;;7.92;100.00
49515;BME280;35415;47.870;16.058;2023-11-21T15:03:55;96833.13;;;7.69;100.00
49515;BME280;35415;47.870;16.058;2023-11-21T15:06:47;96901.44;;;8.24;100.00
49515;BME280;35415;47.870;16.058;2023-11-21T15:11:20;96822.66;;;7.62;100.00
49515;BME280;35415;47.870;16.058;2023-11-21T15:20:15;96832.22;;;7.48;100.00
49515;BME280;35415;47.870;16.058;2023-11-21T15:23:04;96903.69;;;7.90;100.00
49515;BME280;35415;47.870;16.058;2023-11-21T15:25:40;96843.97;;;7.47;100.00
49515;BME280;35415;47.870;16.058;2023-11-21T15:28:23;96904.59;;;7.68;100.00
49515;BME280;35415;47.870;16.058;2023-11-21T15:31:23;96891.72;;;7.60;100.00
49515;BME280;35415;47.870;16.058;2023-11-21T15:40:29;96904.47;;;7.48;100.00
49515;BME280;35415;47.870;16.058;2023-11-21T15:43:12;96913.66;;;7.57;100.00
49515;BME280;35415;47.870;16.058;2023-11-21T18:01:29;96997.25;;;6.06;100.00
49515;BME280;35415;47.870;16.058;2023-11-21T18:04:06;96969.75;;;5.89;100.00
49515;BME280;35415;47.870;16.058;2023-11-21T18:06:44;97031.78;;;6.29;100.00
49515;BME280;35415;47.870;16.058;2023-11-21T18:15:32;97014.78;;;6.19;100.00
49515;BME280;35415;47.870;16.058;2023-11-21T18:18:08;97018.25;;;6.19;100.00
49515;BME280;35415;47.870;16.058;2023-11-21T18:24:44;97045.59;;;6.43;100.00
49515;BME280;35415;47.870;16.058;2023-11-21T18:39:48;96991.59;;;6.02;100.00
49515;BME280;35415;47.870;16.058;2023-11-21T18:42:45;97044.38;;;6.34;100.00
49515;BME280;35415;47.870;16.058;2023-11-21T18:45:41;97032.28;;;6.26;100.00
49515;BME280;35415;47.870;16.058;2023-11-21T18:48:24;97074.00;;;6.49;100.00
49515;BME280;35415;47.870;16.058;2023-11-21T18:50:52;97048.16;;;6.38;100.00
49515;BME280;35415;47.870;16.058;2023-11-21T19:01:59;96995.72;;;6.10;100.00
49515;BME280;35415;47.870;16.058;2023-11-21T19:05:01;97009.44;;;6.19;100.00
49515;BME280;35415;47.870;16.058;2023-11-21T19:08:31;96990.44;;;6.15;100.00
49515;BME280;35415;47.870;16.058;2023-11-21T19:10:45;97060.69;;;6.54;100.00
49515;BME280;35415;47.870;16.058;2023-11-21T19:13:26;97079.31;;;6.66;100.00
49515;BME280;35415;47.870;16.058;2023-11-21T19:15:57;96992.47;;;6.08;100.00
49515;BME280;35415;47.870;16.058;2023-11-21T19:18:35;97059.22;;;6.63;100.00
49515;BME280;35415;47.870;16.058;2023-11-21T19:23:57;97001.88;;;6.11;100.00
49515;BME280;35415;47.870;16.058;2023-11-21T19:30:51;96986.75;;;5.99;100.00
49515;BME280;35415;47.870;16.058;2023-11-21T19:34:17;96999.69;;;6.08;100.00
49515;BME280;35415;47.870;16.058;2023-11-21T19:36:47;97083.63;;;6.50;100.00
49515;BME280;35415;47.870;16.058;2023-11-21T19:39:18;97039.88;;;6.18;100.00
49515;BME280;35415;47.870;16.058;2023-11-21T19:41:57;97051.06;;;6.15;100.00
49515;BME280;35415;47.870;16.058;2023-11-21T19:44:33;97035.59;;;6.00;100.00
49515;BME280;35415;47.870;16.058;2023-11-21T19:50:18;97102.75;;;6.42;100.00
49515;BME280;35415;47.870;16.058;2023-11-21T19:59:12;97070.88;;;6.02;100.00
49515;BME280;35415;47.870;16.058;2023-11-21T20:09:34;97123.22;;;6.37;100.00
49515;BME280;35415;47.870;16.058;2023-11-21T20:12:12;97084.72;;;5.99;100.00
49515;BME280;35415;47.870;16.058;2023-11-21T21:11:57;97081.75;;;5.84;100.00
49515;BME280;35415;47.870;16.058;2023-11-21T21:15:03;97094.84;;;5.85;100.00
49515;BME280;35415;47.870;16.058;2023-11-21T21:21:15;97131.16;;;6.15;100.00
49515;BME280;35415;47.870;16.058;2023-11-21T22:58:51;97109.75;;;5.53;100.00
49515;BME280;35415;47.870;16.058;2023-11-21T23:01:19;97158.03;;;5.80;100.00
49515;BME280;35415;47.870;16.058;2023-11-21T23:03:48;97184.09;;;5.89;100.00
49515;BME280;35415;47.870;16.058;2023-11-21T23:06:16;97130.56;;;5.67;100.00
49515;BME280;35415;47.870;16.058;2023-11-21T23:08:44;97111.84;;;5.51;100.00
49515;BME280;35415;47.870;16.058;2023-11-21T23:11:28;97162.06;;;5.82;100.00
49515;BME280;35415;47.870;16.058;2023-11-21T23:13:57;97200.31;;;5.99;100.00
49515;BME280;35415;47.870;16.058;2023-11-21T23:16:26;97151.03;;;5.62;100.00
49515;BME280;35415;47.870;16.058;2023-11-21T23:18:53;97185.97;;;5.89;100.00
49515;BME280;35415;47.870;16.058;2023-11-21T23:21:20;97113.38;;;5.47;100.00
49515;BME280;35415;47.870;16.058;2023-11-21T23:23:49;97203.41;;;5.91;100.00
49515;BME280;35415;47.870;16.058;2023-11-21T23:26:17;97138.16;;;5.59;100.00
49515;BME280;35415;47.870;16.058;2023-11-21T23:28:44;97175.88;;;5.91;100.00
49515;BME280;35415;47.870;16.058;2023-11-21T23:31:14;97207.97;;;6.08;100.00
49515;BME280;35415;47.870;16.058;2023-11-21T23:33:42;97132.69;;;5.65;100.00
49515;BME280;35415;47.870;16.058;2023-11-21T23:36:12;97125.63;;;5.59;100.00
49515;BME280;35415;47.870;16.058;2023-11-21T23:38:54;97154.72;;;5.72;100.00
49515;BME280;35415;47.870;16.058;2023-11-21T23:41:27;97184.38;;;6.04;100.00
49515;BME280;35415;47.870;16.058;2023-11-21T23:43:58;97223.91;;;6.19;100.00
49515;BME280;35415;47.870;16.058;2023-11-21T23:46:41;97144.94;;;5.78;100.00
49515;BME280;35415;47.870;16.058;2023-11-21T23:49:09;97128.47;;;5.69;100.00
49515;BME280;35415;47.870;16.058;2023-11-21T23:51:37;97150.59;;;5.82;100.00
49515;BME280;35415;47.870;16.058;2023-11-21T23:54:06;97123.81;;;5.77;100.00
49515;BME280;35415;47.870;16.058;2023-11-21T23:56:33;97158.25;;;5.90;100.00
49515;BME280;35415;47.870;16.058;2023-11-21T23:59:01;97189.50;;;6.06;100.00
